Time;durP1;ratioP1;P1;durP2;ratioP2;P2;SDS_P1;SDS_P2;PMS_P1;PMS_P2;Temp;Humidity;BMP_temperature;BMP_pressure;BME280_temperature;BME280_humidity;BME280_pressure;Samples;Min_cycle;Max_cycle;Signal;HPM_P1;HPM_P2
2023/12/02 00:01:51;;;;;;;0.63;0.40;;;;;;;3.96;100.00;90170.75;4935495;29;20089;-79
2023/12/02 00:04:17;;;;;;;0.50;0.50;;;;;;;4.10;100.00;90172.44;4918502;29;20048;-79
2023/12/02 00:06:43;;;;;;;259.75;9.32;;;;;;;4.18;100.00;90161.31;4916640;29;20051;-79
2023/12/02 00:09:09;;;;;;;118.93;5.03;;;;;;;4.15;100.00;90164.53;4936352;29;20095;-79
2023/12/02 00:11:34;;;;;;;188.32;5.50;;;;;;;4.11;100.00;90156.59;4928894;29;20039;-79
2023/12/02 00:14:00;;;;;;;116.57;3.72;;;;;;;4.06;100.00;90153.41;4918126;29;20039;-79
2023/12/02 00:16:25;;;;;;;192.68;5.57;;;;;;;4.14;100.00;90150.03;4933684;29;20035;-80
2023/12/02 00:18:51;;;;;;;128.85;3.58;;;;;;;4.08;100.00;90148.69;4925024;29;20123;-79
2023/12/02 00:21:16;;;;;;;64.35;2.40;;;;;;;4.00;100.00;90146.84;4932781;29;20047;-79
2023/12/02 00:23:42;;;;;;;16.60;1.23;;;;;;;3.92;100.00;90136.16;4934839;29;20074;-79
2023/12/02 00:26:08;;;;;;;0.88;0.80;;;;;;;3.91;100.00;90139.06;4935666;29;20183;-79
2023/12/02 00:28:35;;;;;;;0.80;0.75;;;;;;;3.88;100.00;90131.91;4918956;29;20035;-79
2023/12/02 00:31:01;;;;;;;1.38;0.80;;;;;;;3.92;100.00;90131.00;4918392;29;20027;-79
2023/12/02 00:33:27;;;;;;;0.60;0.60;;;;;;;3.92;100.00;90125.81;4925140;29;20035;-79
2023/12/02 00:35:52;;;;;;;0.60;0.60;;;;;;;3.92;100.00;90104.34;4923451;29;20044;-79
2023/12/02 00:38:18;;;;;;;0.60;0.60;;;;;;;3.94;100.00;90100.41;4926698;29;20035;-79
2023/12/02 00:40:43;;;;;;;0.55;0.55;;;;;;;3.98;100.00;90097.94;4935396;29;20177;-79
2023/12/02 00:43:09;;;;;;;0.45;0.45;;;;;;;4.00;100.00;90087.28;4916515;29;20507;-79
2023/12/02 00:45:34;;;;;;;0.45;0.45;;;;;;;4.02;100.00;90085.16;4928199;29;20044;-79
2023/12/02 00:48:00;;;;;;;0.82;0.70;;;;;;;4.05;100.00;90087.13;4918221;29;20042;-79
2023/12/02 00:50:25;;;;;;;0.60;0.60;;;;;;;4.07;100.00;90079.81;4918231;29;20492;-79
2023/12/02 00:52:51;;;;;;;0.85;0.70;;;;;;;4.07;100.00;90090.94;4935586;29;20051;-79
2023/12/02 00:55:17;;;;;;;0.60;0.60;;;;;;;4.06;100.00;90091.25;4933390;29;20043;-80
2023/12/02 00:57:42;;;;;;;0.63;0.63;;;;;;;4.09;100.00;90098.41;4933416;29;20051;-79
2023/12/02 01:00:08;;;;;;;0.60;0.60;;;;;;;4.09;100.00;90082.88;4935144;29;20051;-80
2023/12/02 01:02:34;;;;;;;0.68;0.68;;;;;;;4.08;100.00;90079.53;4927393;29;20054;-79
2023/12/02 01:05:00;;;;;;;0.60;0.60;;;;;;;4.07;100.00;90075.41;4928411;29;20040;-79
2023/12/02 01:07:25;;;;;;;123.95;3.85;;;;;;;4.04;100.00;90064.91;4916942;29;20031;-79
2023/12/02 01:09:51;;;;;;;36.42;1.75;;;;;;;4.04;100.00;90063.06;4930028;29;20024;-79
2023/12/02 01:12:16;;;;;;;158.68;4.53;;;;;;;3.97;100.00;90066.13;4925450;29;20051;-80
2023/12/02 01:14:42;;;;;;;58.10;2.45;;;;;;;3.96;100.00;90064.63;4934414;29;20222;-79
2023/12/02 01:17:08;;;;;;;198.88;6.68;;;;;;;4.10;100.00;90059.28;4934110;29;20032;-79
2023/12/02 01:19:33;;;;;;;59.92;2.65;;;;;;;4.05;100.00;90040.53;4933776;29;20040;-79
2023/12/02 01:21:59;;;;;;;6.57;0.93;;;;;;;3.97;100.00;90029.88;4934590;29;20031;-79
2023/12/02 01:24:25;;;;;;;2.58;0.80;;;;;;;3.96;100.00;90040.53;4928016;29;20401;-79
2023/12/02 01:26:50;;;;;;;0.65;0.65;;;;;;;4.06;100.00;90036.91;4927277;29;20034;-79
2023/12/02 01:29:16;;;;;;;0.50;0.50;;;;;;;4.12;100.00;90017.53;4935680;29;20039;-79
2023/12/02 01:31:41;;;;;;;0.45;0.45;;;;;;;4.14;100.00;90018.78;4935026;29;20471;-79
2023/12/02 01:34:07;;;;;;;0.60;0.60;;;;;;;4.17;100.00;90019.97;4910348;29;20048;-79
2023/12/02 01:36:32;;;;;;;0.57;0.57;;;;;;;4.22;100.00;90022.41;4934038;29;20053;-79
2023/12/02 01:38:58;;;;;;;0.47;0.47;;;;;;;4.18;100.00;90011.88;4935017;29;20334;-79
2023/12/02 01:41:23;;;;;;;0.40;0.40;;;;;;;4.18;100.00;90011.88;4932573;29;20036;-80
2023/12/02 01:43:50;;;;;;;0.40;0.40;;;;;;;4.28;100.00;90007.44;4938936;29;20515;-80
2023/12/02 01:46:15;;;;;;;10.10;1.08;;;;;;;4.30;100.00;90006.09;4931607;29;20027;-79
2023/12/02 01:48:41;;;;;;;15.70;1.30;;;;;;;4.30;100.00;89990.56;4928815;29;20512;-79
2023/12/02 01:51:08;;;;;;;0.70;0.70;;;;;;;4.15;100.00;89994.38;4927166;29;20119;-79
2023/12/02 01:53:33;;;;;;;0.50;0.50;;;;;;;4.12;100.00;90004.59;4935338;29;20118;-79
2023/12/02 01:55:59;;;;;;;0.47;0.47;;;;;;;4.11;100.00;90000.47;4933810;29;20134;-79
2023/12/02 01:58:24;;;;;;;0.40;0.40;;;;;;;4.12;100.00;90009.75;4912270;29;20123;-79
2023/12/02 02:00:50;;;;;;;0.40;0.40;;;;;;;4.30;100.00;90006.09;4922055;29;20139;-79
2023/12/02 02:03:16;;;;;;;0.40;0.40;;;;;;;4.16;100.00;90021.03;4922995;29;20069;-79
2023/12/02 02:05:44;;;;;;;0.50;0.50;;;;;;;4.09;100.00;90015.56;4937771;29;20034;-79
2023/12/02 02:08:10;;;;;;;0.40;0.40;;;;;;;4.05;100.00;90010.22;4930068;29;20039;-79
2023/12/02 02:10:35;;;;;;;0.43;0.43;;;;;;;4.04;100.00;90013.13;4938956;29;20043;-79
2023/12/02 02:13:01;;;;;;;0.52;0.52;;;;;;;4.03;100.00;90017.56;4938617;29;20032;-79
2023/12/02 02:15:27;;;;;;;0.50;0.50;;;;;;;4.03;100.00;90027.13;4930607;29;20043;-79
2023/12/02 02:17:52;;;;;;;0.60;0.50;;;;;;;4.06;100.00;90031.72;4937760;29;20488;-78
2023/12/02 02:20:18;;;;;;;1.40;0.50;;;;;;;4.10;100.00;90035.22;4936640;29;20055;-78
2023/12/02 02:22:43;;;;;;;0.50;0.50;;;;;;;4.16;100.00;90039.16;4932355;29;20035;-78
2023/12/02 02:25:09;;;;;;;0.40;0.40;;;;;;;4.08;100.00;90039.94;4925395;29;20052;-79
2023/12/02 02:27:35;;;;;;;0.50;0.50;;;;;;;4.02;100.00;90048.91;4936293;29;20083;-78
2023/12/02 02:30:00;;;;;;;0.50;0.50;;;;;;;4.08;100.00;90040.69;4918426;29;20044;-78
2023/12/02 02:32:26;;;;;;;0.50;0.50;;;;;;;4.01;100.00;90040.41;4912973;29;20381;-78
2023/12/02 02:34:52;;;;;;;0.38;0.38;;;;;;;4.03;100.00;90040.84;4919428;29;20044;-79
2023/12/02 02:37:18;;;;;;;0.60;0.60;;;;;;;4.03;100.00;90037.50;4929453;29;20521;-79
2023/12/02 02:39:44;;;;;;;0.55;0.50;;;;;;;4.14;100.00;90034.31;4936185;29;20051;-79
2023/12/02 02:42:10;;;;;;;0.63;0.63;;;;;;;4.14;100.00;90049.84;4919701;29;20704;-79
2023/12/02 02:44:36;;;;;;;136.55;4.28;;;;;;;4.16;100.00;90046.91;4935998;29;20035;-79
2023/12/02 02:47:02;;;;;;;29.30;1.55;;;;;;;4.22;100.00;90048.28;4928010;29;20448;-78
2023/12/02 02:49:28;;;;;;;8.98;1.00;;;;;;;4.13;100.00;90053.47;4934814;29;20038;-78
2023/12/02 02:51:53;;;;;;;15.90;1.33;;;;;;;4.01;100.00;90061.13;4928419;29;20030;-78
2023/12/02 02:54:19;;;;;;;0.60;0.60;;;;;;;3.95;100.00;90068.25;4935048;29;20047;-79
2023/12/02 02:56:44;;;;;;;22.92;1.40;;;;;;;4.09;100.00;90064.75;4918884;29;20062;-79
2023/12/02 02:59:10;;;;;;;0.50;0.50;;;;;;;3.91;100.00;90069.91;4928692;29;20043;-79
2023/12/02 03:01:38;;;;;;;18.25;1.60;;;;;;;3.94;100.00;90084.06;4939144;29;20027;-79
2023/12/02 03:04:04;;;;;;;1.85;0.60;;;;;;;3.75;100.00;90089.56;4936613;29;20044;-79
2023/12/02 03:06:29;;;;;;;0.60;0.60;;;;;;;3.65;100.00;90089.84;4930530;29;20662;-78
2023/12/02 03:08:55;;;;;;;0.40;0.40;;;;;;;3.62;100.00;90087.84;4918217;29;20024;-81
2023/12/02 03:11:20;;;;;;;0.60;0.60;;;;;;;3.59;100.00;90086.63;4934986;29;20418;-78
2023/12/02 03:13:46;;;;;;;0.40;0.40;;;;;;;3.57;100.00;90088.00;4927188;29;20122;-78
2023/12/02 03:16:11;;;;;;;0.88;0.50;;;;;;;3.58;100.00;90089.50;4927150;29;20173;-80
2023/12/02 03:18:37;;;;;;;1.80;0.90;;;;;;;3.57;100.00;90082.81;4936328;29;20807;-78
2023/12/02 03:21:02;;;;;;;0.50;0.50;;;;;;;3.57;100.00;90080.25;4937884;29;20043;-78
2023/12/02 03:23:28;;;;;;;0.45;0.45;;;;;;;3.70;100.00;90082.69;4936476;29;20024;-78
2023/12/02 03:25:53;;;;;;;17.45;1.38;;;;;;;3.82;100.00;90076.16;4935923;29;20043;-78
2023/12/02 03:28:21;;;;;;;300.77;8.13;;;;;;;3.78;100.00;90083.75;4928615;29;20051;-79
2023/12/02 03:30:46;;;;;;;99.65;3.55;;;;;;;3.73;100.00;90076.91;4936800;29;20039;-79
2023/12/02 03:33:12;;;;;;;36.10;2.03;;;;;;;3.96;100.00;90064.63;4935738;29;20039;-79
2023/12/02 03:35:38;;;;;;;13.98;1.15;;;;;;;3.72;100.00;90070.22;4925882;29;20035;-80
2023/12/02 03:38:04;;;;;;;47.90;2.08;;;;;;;3.65;100.00;90063.97;4911293;29;20123;-80
2023/12/02 03:40:29;;;;;;;1.08;0.70;;;;;;;3.58;100.00;90059.25;4933915;29;20139;-79
2023/12/02 03:42:55;;;;;;;0.47;0.47;;;;;;;3.56;100.00;90071.72;4903348;29;20036;-80
2023/12/02 03:45:21;;;;;;;0.70;0.70;;;;;;;3.58;100.00;90066.22;4918874;29;20159;-79
2023/12/02 03:47:47;;;;;;;0.60;0.60;;;;;;;3.53;100.00;90062.75;4926907;29;20035;-79
2023/12/02 03:50:13;;;;;;;0.40;0.40;;;;;;;3.61;100.00;90073.41;4934935;29;20050;-79
2023/12/02 03:52:39;;;;;;;0.40;0.40;;;;;;;3.65;100.00;90074.34;4916477;29;20043;-80
2023/12/02 03:55:05;;;;;;;0.40;0.40;;;;;;;3.61;100.00;90063.81;4930447;29;20032;-80
2023/12/02 03:57:31;;;;;;;0.40;0.40;;;;;;;3.53;100.00;90067.13;4918766;29;20062;-79
2023/12/02 03:59:57;;;;;;;0.50;0.50;;;;;;;3.50;100.00;90060.75;4930445;29;20028;-79
2023/12/02 04:02:23;;;;;;;0.40;0.40;;;;;;;3.51;100.00;90061.50;4925936;29;20557;-80
2023/12/02 04:04:48;;;;;;;0.43;0.43;;;;;;;3.49;100.00;90066.22;4930322;29;20040;-80
2023/12/02 04:07:14;;;;;;;0.55;0.55;;;;;;;3.53;100.00;90086.03;4935676;29;20032;-79
2023/12/02 04:09:40;;;;;;;0.40;0.40;;;;;;;3.46;100.00;90100.44;4918648;29;20086;-78
2023/12/02 04:12:05;;;;;;;0.50;0.50;;;;;;;3.39;100.00;90082.78;4932111;29;20130;-80
2023/12/02 04:14:31;;;;;;;0.38;0.38;;;;;;;3.34;100.00;90075.16;4927679;29;20058;-79
2023/12/02 04:16:56;;;;;;;1.25;0.57;;;;;;;3.31;100.00;90055.06;4918379;29;20594;-80
2023/12/02 04:19:22;;;;;;;0.47;0.47;;;;;;;3.24;100.00;90059.91;4931880;29;20028;-80
2023/12/02 04:21:48;;;;;;;0.40;0.40;;;;;;;3.22;100.00;90064.63;4937018;29;20035;-79
2023/12/02 04:24:13;;;;;;;0.50;0.50;;;;;;;3.14;100.00;90060.97;4918381;29;20039;-79
2023/12/02 04:26:41;;;;;;;0.40;0.40;;;;;;;3.06;100.00;90064.28;4935830;29;20032;-79
2023/12/02 04:29:06;;;;;;;0.52;0.52;;;;;;;3.03;100.00;90070.03;4934685;29;20028;-79
2023/12/02 04:31:32;;;;;;;0.47;0.47;;;;;;;3.06;100.00;90065.06;4934893;29;20043;-80
2023/12/02 04:33:57;;;;;;;0.40;0.40;;;;;;;2.96;100.00;90069.72;4926807;29;20129;-80
2023/12/02 04:36:23;;;;;;;0.63;0.47;;;;;;;2.92;100.00;90083.22;4916863;29;20107;-79
2023/12/02 04:38:49;;;;;;;0.50;0.50;;;;;;;2.95;100.00;90058.63;4933653;29;20491;-79
2023/12/02 04:41:14;;;;;;;0.45;0.45;;;;;;;2.98;100.00;90063.19;4934916;29;20075;-80
2023/12/02 04:43:40;;;;;;;0.47;0.47;;;;;;;2.95;100.00;90073.34;4940528;29;20471;-79
2023/12/02 04:46:07;;;;;;;0.50;0.50;;;;;;;2.92;100.00;90072.13;4931879;29;20048;-79
2023/12/02 04:48:33;;;;;;;0.45;0.45;;;;;;;2.92;100.00;90072.13;4932653;29;20574;-79
2023/12/02 04:50:59;;;;;;;0.40;0.40;;;;;;;2.87;100.00;90083.34;4929309;29;20024;-79
2023/12/02 04:53:25;;;;;;;0.50;0.50;;;;;;;2.96;100.00;90061.97;4927077;29;20035;-79
2023/12/02 04:55:52;;;;;;;0.50;0.50;;;;;;;3.00;100.00;90068.06;4934286;29;20199;-79
2023/12/02 04:58:19;;;;;;;0.55;0.55;;;;;;;2.89;100.00;90059.81;4933481;29;20091;-78
2023/12/02 05:00:44;;;;;;;0.40;0.40;;;;;;;2.82;100.00;90056.91;4916721;29;20117;-79
2023/12/02 05:03:10;;;;;;;0.50;0.50;;;;;;;2.78;100.00;90061.88;4926118;29;20036;-79
2023/12/02 05:05:36;;;;;;;0.50;0.50;;;;;;;2.74;100.00;90066.13;4934213;29;20043;-79
2023/12/02 05:08:02;;;;;;;0.50;0.50;;;;;;;2.64;100.00;90077.47;4927571;29;20044;-79
2023/12/02 05:10:27;;;;;;;0.45;0.45;;;;;;;2.62;100.00;90066.69;4933653;29;20038;-80
2023/12/02 05:12:53;;;;;;;0.50;0.50;;;;;;;2.49;100.00;90065.69;4928427;29;20051;-78
2023/12/02 05:15:18;;;;;;;0.50;0.50;;;;;;;2.41;100.00;90071.59;4923309;29;20046;-79
2023/12/02 05:17:46;;;;;;;0.60;0.60;;;;;;;2.35;100.00;90066.84;4932973;29;20036;-80
2023/12/02 05:20:13;;;;;;;0.57;0.57;;;;;;;2.27;100.00;90061.31;4932841;29;20044;-79
2023/12/02 05:22:39;;;;;;;0.50;0.50;;;;;;;2.13;100.00;90070.19;4926364;29;20046;-80
2023/12/02 05:25:06;;;;;;;0.50;0.50;;;;;;;2.16;100.00;90069.59;4919536;29;20040;-79
2023/12/02 05:27:32;;;;;;;0.50;0.50;;;;;;;2.12;100.00;90064.25;4935162;29;20025;-80
2023/12/02 05:29:58;;;;;;;0.50;0.50;;;;;;;2.10;100.00;90066.38;4933600;29;20047;-79
2023/12/02 05:32:24;;;;;;;0.50;0.50;;;;;;;2.06;100.00;90068.75;4930281;29;20107;-80
2023/12/02 05:34:50;;;;;;;0.40;0.40;;;;;;;2.12;100.00;90053.94;4912497;29;20043;-80
2023/12/02 05:37:16;;;;;;;0.40;0.40;;;;;;;2.17;100.00;90056.41;4929579;29;20051;-80
2023/12/02 05:39:41;;;;;;;0.50;0.50;;;;;;;2.15;100.00;90053.34;4916515;29;20044;-77
2023/12/02 05:42:07;;;;;;;0.50;0.50;;;;;;;2.21;100.00;90054.75;4932997;29;20040;-79
2023/12/02 05:44:33;;;;;;;0.52;0.52;;;;;;;2.12;100.00;90050.56;4931890;29;20036;-80
2023/12/02 05:46:58;;;;;;;0.50;0.50;;;;;;;2.12;100.00;90042.84;4940249;29;20036;-78
2023/12/02 05:49:24;;;;;;;0.50;0.50;;;;;;;2.22;100.00;90048.53;4926956;29;20019;-78
2023/12/02 05:51:49;;;;;;;0.40;0.40;;;;;;;2.23;100.00;90039.75;4919933;29;20031;-80
2023/12/02 05:54:15;;;;;;;0.40;0.40;;;;;;;2.28;100.00;90037.03;4936314;29;20479;-78
2023/12/02 05:56:41;;;;;;;0.50;0.50;;;;;;;2.34;100.00;90053.13;4927624;29;20559;-78
2023/12/02 05:59:06;;;;;;;0.57;0.57;;;;;;;2.38;100.00;90061.81;4933836;29;20031;-78
2023/12/02 06:01:32;;;;;;;0.50;0.50;;;;;;;2.39;100.00;90057.44;4932595;29;20040;-77
2023/12/02 06:03:57;;;;;;;0.50;0.50;;;;;;;2.34;100.00;90047.97;4934754;29;20044;-78
2023/12/02 06:06:23;;;;;;;0.50;0.50;;;;;;;2.34;100.00;90067.88;4918646;29;20038;-78
2023/12/02 06:08:48;;;;;;;0.40;0.40;;;;;;;2.33;100.00;90061.19;4918484;29;20074;-78
2023/12/02 06:11:14;;;;;;;0.60;0.60;;;;;;;2.33;100.00;90056.03;4929338;29;20046;-78
2023/12/02 06:13:39;;;;;;;0.50;0.50;;;;;;;2.45;100.00;90048.50;4936845;29;20134;-80
2023/12/02 06:16:05;;;;;;;0.40;0.40;;;;;;;2.37;100.00;90067.31;4936057;29;20368;-78
2023/12/02 06:18:31;;;;;;;0.55;0.50;;;;;;;2.36;100.00;90050.28;4930183;29;20094;-78
2023/12/02 06:20:57;;;;;;;0.50;0.50;;;;;;;2.36;100.00;90058.78;4938063;29;20038;-78
2023/12/02 06:23:23;;;;;;;0.47;0.47;;;;;;;2.42;100.00;90052.44;4937341;29;20032;-79
2023/12/02 06:25:49;;;;;;;0.57;0.57;;;;;;;2.40;100.00;90066.72;4936743;29;20068;-78
2023/12/02 06:28:16;;;;;;;0.45;0.45;;;;;;;2.32;100.00;90063.03;4936816;29;20066;-81
2023/12/02 06:30:42;;;;;;;0.57;0.57;;;;;;;2.28;100.00;90080.91;4920736;29;20043;-78
2023/12/02 06:33:08;;;;;;;0.50;0.50;;;;;;;2.23;100.00;90095.75;4938369;29;20171;-78
2023/12/02 06:35:33;;;;;;;0.50;0.50;;;;;;;2.27;100.00;90056.16;4920638;29;20519;-79
2023/12/02 06:37:59;;;;;;;0.43;0.43;;;;;;;2.22;100.00;90066.59;4918904;29;20047;-79
2023/12/02 06:40:25;;;;;;;0.50;0.50;;;;;;;2.34;100.00;90075.63;4938208;29;20060;-81
2023/12/02 06:42:50;;;;;;;0.40;0.40;;;;;;;2.45;100.00;90071.75;4923291;29;20122;-79
2023/12/02 06:45:16;;;;;;;0.60;0.60;;;;;;;2.41;100.00;90097.41;4922107;29;20046;-79
2023/12/02 06:47:41;;;;;;;0.40;0.40;;;;;;;2.45;100.00;90077.66;4920036;29;20028;-78
2023/12/02 06:50:08;;;;;;;0.40;0.40;;;;;;;2.51;100.00;90086.06;4949715;29;20072;-80
2023/12/02 06:52:33;;;;;;;0.40;0.40;;;;;;;2.49;100.00;90101.09;4949813;29;20559;-82
2023/12/02 06:54:59;;;;;;;0.50;0.50;;;;;;;2.42;100.00;90104.09;4933783;29;20079;-80
2023/12/02 06:57:24;;;;;;;0.40;0.40;;;;;;;2.31;100.00;90133.03;4946593;29;20051;-78
2023/12/02 06:59:51;;;;;;;0.50;0.50;;;;;;;2.39;100.00;90134.91;4945223;29;20075;-78
2023/12/02 07:02:18;;;;;;;1.80;1.10;;;;;;;2.36;100.00;90130.31;4921710;29;20054;-79
2023/12/02 07:04:45;;;;;;;0.60;0.60;;;;;;;2.38;100.00;90143.69;4933330;29;20039;-79
2023/12/02 07:07:11;;;;;;;0.40;0.40;;;;;;;2.36;100.00;90131.06;4934731;29;20165;-78
2023/12/02 07:09:37;;;;;;;0.55;0.55;;;;;;;2.48;100.00;90125.41;4934547;29;20032;-78
2023/12/02 07:12:03;;;;;;;0.50;0.50;;;;;;;2.33;100.00;90144.56;4934024;29;20055;-78
2023/12/02 07:14:29;;;;;;;0.40;0.40;;;;;;;2.46;100.00;90148.16;4937112;29;20054;-79
2023/12/02 07:16:54;;;;;;;0.50;0.50;;;;;;;2.54;100.00;90147.44;4935810;29;20399;-81
2023/12/02 07:19:20;;;;;;;0.50;0.50;;;;;;;2.56;100.00;90119.50;4918798;29;20051;-80
2023/12/02 07:21:45;;;;;;;0.50;0.50;;;;;;;2.39;100.00;90137.50;4935392;29;20036;-80
2023/12/02 07:24:11;;;;;;;0.65;0.65;;;;;;;2.31;100.00;90153.69;4937209;29;20062;-81
2023/12/02 07:26:36;;;;;;;0.40;0.40;;;;;;;2.27;100.00;90156.84;4936292;29;20160;-81
2023/12/02 07:29:03;;;;;;;0.40;0.40;;;;;;;2.34;100.00;90163.41;4936089;29;20040;-80
2023/12/02 07:31:29;;;;;;;0.50;0.50;;;;;;;2.22;100.00;90177.59;4920237;29;20360;-80
2023/12/02 07:33:54;;;;;;;0.50;0.50;;;;;;;2.19;100.00;90173.03;4934142;29;20046;-79
2023/12/02 07:36:20;;;;;;;0.45;0.45;;;;;;;2.15;100.00;90197.13;4936175;29;20411;-80
2023/12/02 07:38:45;;;;;;;0.50;0.50;;;;;;;2.13;100.00;90202.56;4934426;29;20024;-80
2023/12/02 07:41:11;;;;;;;0.60;0.60;;;;;;;2.20;100.00;90215.84;4936009;29;20134;-79
2023/12/02 07:43:37;;;;;;;1.00;0.80;;;;;;;2.15;100.00;90200.47;4919257;29;20047;-80
2023/12/02 07:46:03;;;;;;;0.50;0.50;;;;;;;2.16;100.00;90214.91;4920050;29;20043;-80
2023/12/02 07:48:28;;;;;;;0.50;0.50;;;;;;;2.17;100.00;90226.75;4934993;29;20035;-81
2023/12/02 07:50:54;;;;;;;0.55;0.55;;;;;;;2.21;100.00;90227.72;4935798;29;20366;-81
2023/12/02 07:53:19;;;;;;;0.50;0.50;;;;;;;2.21;100.00;90222.53;4936144;29;20159;-80
2023/12/02 07:55:45;;;;;;;0.60;0.60;;;;;;;2.24;100.00;90221.19;4918843;29;20028;-81
2023/12/02 07:58:12;;;;;;;0.60;0.60;;;;;;;2.44;100.00;90225.94;4935909;29;20123;-81
2023/12/02 08:00:37;;;;;;;0.43;0.43;;;;;;;2.58;100.00;90231.03;4903489;29;20036;-81
2023/12/02 08:03:03;;;;;;;0.60;0.60;;;;;;;2.52;100.00;90237.38;4935064;29;20095;-78
2023/12/02 08:05:28;;;;;;;0.60;0.60;;;;;;;2.61;100.00;90256.31;4933988;29;20043;-79
2023/12/02 08:07:54;;;;;;;0.40;0.40;;;;;;;2.55;100.00;90239.38;4911879;29;20032;-81
2023/12/02 08:10:20;;;;;;;0.50;0.50;;;;;;;2.60;100.00;90218.59;4915425;29;20395;-79
2023/12/02 08:12:45;;;;;;;0.40;0.40;;;;;;;2.52;100.00;90234.78;4897411;29;20492;-79
2023/12/02 08:15:11;;;;;;;0.45;0.45;;;;;;;2.47;100.00;90238.25;4897398;29;20063;-79
2023/12/02 08:17:36;;;;;;;0.60;0.60;;;;;;;2.61;100.00;90253.72;4901218;29;20487;-79
2023/12/02 08:20:05;;;;;;;0.47;0.47;;;;;;;2.53;100.00;90244.06;4933215;29;20028;-79
2023/12/02 08:22:31;;;;;;;0.50;0.50;;;;;;;2.45;100.00;90244.75;4931628;29;20043;-78
2023/12/02 08:24:57;;;;;;;0.40;0.40;;;;;;;2.42;100.00;90245.34;4932932;29;20130;-79
2023/12/02 08:27:23;;;;;;;0.50;0.50;;;;;;;2.53;100.00;90264.75;4931691;29;20459;-78
2023/12/02 08:29:49;;;;;;;0.50;0.50;;;;;;;2.56;100.00;90274.47;4916409;29;20071;-82
2023/12/02 08:32:14;;;;;;;0.45;0.45;;;;;;;2.65;100.00;90283.06;4931101;29;20066;-82
2023/12/02 08:34:40;;;;;;;0.47;0.47;;;;;;;2.82;100.00;90284.28;4915740;29;20270;-81
2023/12/02 08:37:06;;;;;;;0.50;0.50;;;;;;;2.84;100.00;90303.59;4916738;29;20047;-81
2023/12/02 08:39:32;;;;;;;0.40;0.40;;;;;;;2.83;100.00;90314.22;4934338;29;20247;-83
2023/12/02 08:41:58;;;;;;;0.40;0.40;;;;;;;2.81;100.00;90306.75;4935266;29;20039;-82
2023/12/02 08:44:24;;;;;;;0.50;0.50;;;;;;;2.89;100.00;90313.06;4929752;29;20509;-80
2023/12/02 08:46:50;;;;;;;0.50;0.50;;;;;;;2.94;100.00;90314.78;4935700;29;20058;-80
2023/12/02 08:49:16;;;;;;;0.40;0.40;;;;;;;2.97;100.00;90312.34;4936294;29;20091;-82
2023/12/02 08:51:41;;;;;;;0.60;0.57;;;;;;;3.04;100.00;90310.16;4937498;29;20571;-83
2023/12/02 08:54:07;;;;;;;0.43;0.43;;;;;;;3.03;100.00;90324.13;4936934;29;20062;-80
2023/12/02 08:56:33;;;;;;;0.50;0.50;;;;;;;2.99;100.00;90328.34;4911935;29;20035;-80
2023/12/02 08:58:59;;;;;;;0.50;0.50;;;;;;;3.05;100.00;90326.41;4933598;28;20118;-83
2023/12/02 09:01:25;;;;;;;0.47;0.40;;;;;;;2.97;100.00;90319.34;4925423;29;20118;-81
2023/12/02 09:03:51;;;;;;;0.50;0.50;;;;;;;3.06;100.00;90323.53;4934989;29;20032;-79
2023/12/02 09:06:17;;;;;;;0.50;0.50;;;;;;;3.08;100.00;90331.75;4919743;29;20087;-83
2023/12/02 09:08:42;;;;;;;0.40;0.40;;;;;;;3.15;100.00;90336.50;4910580;29;20036;-80
2023/12/02 09:11:08;;;;;;;0.50;0.50;;;;;;;3.17;100.00;90333.66;4935003;29;20500;-80
2023/12/02 09:13:39;;;;;;;0.40;0.40;;;;;;;3.08;100.00;90331.75;4923005;29;20024;-80
2023/12/02 09:16:10;;;;;;;0.50;0.50;;;;;;;3.11;100.00;90326.00;4933488;29;20070;-81
2023/12/02 09:18:36;;;;;;;0.50;0.50;;;;;;;3.15;100.00;90335.75;4923813;29;20066;-79
2023/12/02 09:21:02;;;;;;;0.50;0.50;;;;;;;3.06;100.00;90331.31;4929096;29;20046;-80
2023/12/02 09:23:29;;;;;;;0.47;0.47;;;;;;;3.15;100.00;90340.94;4915547;29;20474;-81
2023/12/02 09:26:01;;;;;;;0.60;0.60;;;;;;;3.35;100.00;90348.22;4931490;29;20054;-80
2023/12/02 09:28:29;;;;;;;0.40;0.40;;;;;;;3.45;100.00;90342.81;4928859;29;20083;-81
2023/12/02 09:30:59;;;;;;;0.50;0.50;;;;;;;3.44;100.00;90353.47;4931201;29;20099;-81
2023/12/02 09:33:26;;;;;;;0.40;0.40;;;;;;;3.52;100.00;90345.75;4932709;29;20090;-78
2023/12/02 09:35:58;;;;;;;0.40;0.40;;;;;;;3.48;100.00;90339.63;4934340;29;20059;-81
2023/12/02 09:38:23;;;;;;;0.50;0.50;;;;;;;3.52;100.00;90350.94;4931519;29;20032;-79
2023/12/02 09:41:14;;;;;;;0.60;0.60;;;;;;;3.84;99.79;90353.56;4915924;29;20067;-79
2023/12/02 09:43:51;;;;;;;0.50;0.50;;;;;;;3.92;97.07;90352.84;4915983;29;20036;-80
2023/12/02 09:46:31;;;;;;;0.40;0.40;;;;;;;3.74;100.00;90365.69;4932602;29;20032;-81
2023/12/02 09:49:22;;;;;;;0.50;0.50;;;;;;;3.83;99.77;90363.16;4930081;29;20070;-79
2023/12/02 09:51:57;;;;;;;0.50;0.50;;;;;;;4.02;88.75;90360.34;4935275;29;20476;-80
2023/12/02 09:54:32;;;;;;;0.40;0.40;;;;;;;4.14;88.40;90345.03;4935757;29;20028;-80
2023/12/02 09:57:20;;;;;;;0.50;0.50;;;;;;;4.08;84.41;90346.22;4936083;29;20060;-80
2023/12/02 10:00:05;;;;;;;0.57;0.57;;;;;;;4.16;83.54;90355.81;4929698;29;20684;-81
2023/12/02 10:03:08;;;;;;;0.50;0.50;;;;;;;4.12;87.86;90356.72;4920646;29;20108;-82
2023/12/02 10:05:53;;;;;;;0.40;0.40;;;;;;;4.26;75.94;90354.81;4932188;29;20031;-78
2023/12/02 10:08:38;;;;;;;0.50;0.50;;;;;;;4.20;87.55;90357.84;4928528;29;20036;-81
2023/12/02 10:11:07;;;;;;;0.50;0.50;;;;;;;4.26;75.43;90365.19;4932525;29;20514;-79
2023/12/02 10:13:42;;;;;;;0.68;0.68;;;;;;;4.32;85.72;90379.53;4921528;29;20036;-78
2023/12/02 10:16:15;;;;;;;0.47;0.47;;;;;;;4.38;79.27;90380.91;4938150;29;20163;-82
2023/12/02 10:18:52;;;;;;;0.47;0.47;;;;;;;4.35;88.97;90378.16;4932356;29;20127;-79
2023/12/02 10:21:20;;;;;;;0.50;0.50;;;;;;;4.19;91.23;90398.50;4934983;29;20051;-79
2023/12/02 10:24:10;;;;;;;0.52;0.52;;;;;;;4.12;97.76;90392.97;4936236;29;20087;-79
2023/12/02 10:27:03;;;;;;;0.50;0.50;;;;;;;4.21;93.57;90403.38;4937203;29;20036;-78
2023/12/02 10:29:35;;;;;;;0.40;0.40;;;;;;;4.12;87.11;90393.75;4933846;29;20103;-80
2023/12/02 10:32:43;;;;;;;0.50;0.50;;;;;;;4.05;100.00;90403.75;4933344;29;20487;-80
2023/12/02 10:35:21;;;;;;;0.50;0.50;;;;;;;4.04;93.50;90404.06;4899999;29;20395;-82
2023/12/02 10:37:58;;;;;;;0.52;0.50;;;;;;;4.32;76.51;90402.06;4905170;29;20063;-80
2023/12/02 10:40:27;;;;;;;0.40;0.40;;;;;;;4.50;83.42;90414.03;4936561;29;20074;-81
2023/12/02 10:43:10;;;;;;;0.50;0.50;;;;;;;4.43;76.28;90428.47;4937647;29;20036;-80
2023/12/02 10:45:41;;;;;;;0.60;0.60;;;;;;;4.38;82.17;90427.53;4935649;29;20052;-84
2023/12/02 10:48:12;;;;;;;0.60;0.60;;;;;;;4.38;89.22;90442.31;4934617;29;20028;-79
2023/12/02 10:50:39;;;;;;;0.50;0.50;;;;;;;4.31;92.17;90429.03;4936976;29;20126;-82
2023/12/02 10:53:05;;;;;;;0.68;0.68;;;;;;;4.45;78.29;90437.47;4934526;29;20034;-81
2023/12/02 10:55:33;;;;;;;0.50;0.50;;;;;;;4.53;72.84;90434.16;4935770;29;20039;-81
2023/12/02 10:58:04;;;;;;;0.50;0.50;;;;;;;4.59;69.54;90447.75;4938614;29;20062;-81
2023/12/02 11:00:32;;;;;;;0.60;0.60;;;;;;;4.84;66.77;90450.72;4936925;29;20032;-82
2023/12/02 11:03:10;;;;;;;0.80;0.80;;;;;;;4.87;64.84;90450.16;4919858;29;20023;-81
2023/12/02 11:05:55;;;;;;;0.80;0.70;;;;;;;4.86;73.87;90456.38;4923707;29;20071;-81
2023/12/02 11:08:43;;;;;;;0.60;0.60;;;;;;;4.87;55.40;90457.94;4938460;29;20035;-81
2023/12/02 11:11:14;;;;;;;0.60;0.60;;;;;;;4.79;68.66;90473.13;4933076;29;20036;-81
2023/12/02 11:13:42;;;;;;;0.50;0.50;;;;;;;4.85;63.18;90475.59;4935150;29;20095;-81
2023/12/02 11:16:53;;;;;;;0.50;0.50;;;;;;;4.92;61.49;90474.09;4938596;29;20032;-80
2023/12/02 11:19:33;;;;;;;0.60;0.60;;;;;;;4.97;70.31;90494.69;4916320;29;20134;-81
2023/12/02 11:22:13;;;;;;;0.50;0.50;;;;;;;4.95;63.04;90490.88;4931739;29;20043;-81
2023/12/02 11:25:17;;;;;;;0.57;0.57;;;;;;;5.18;49.69;90497.53;4915080;29;20408;-79
2023/12/02 11:27:54;;;;;;;0.60;0.60;;;;;;;5.21;57.87;90507.28;4875026;29;20115;-79
2023/12/02 11:30:40;;;;;;;0.55;0.55;;;;;;;5.15;56.50;90498.13;4875685;29;20041;-80
2023/12/02 11:33:38;;;;;;;1.00;0.60;;;;;;;5.15;62.54;90516.28;4913771;29;20515;-82
2023/12/02 11:36:36;;;;;;;0.63;0.60;;;;;;;5.12;58.06;90535.03;4933118;29;20563;-80
2023/12/02 11:39:14;;;;;;;0.60;0.60;;;;;;;5.29;52.46;90530.97;4931477;29;20071;-81